sensor_id;sensor_type;location;lat;lon;timestamp;P1;durP1;ratioP1;P2;durP2;ratioP2
26082;SDS011;13848;49.018;12.078;2024-01-30T00:01:46;16.48;;;9.55;;
26082;SDS011;13848;49.018;12.078;2024-01-30T00:04:12;18.33;;;9.32;;
26082;SDS011;13848;49.018;12.078;2024-01-30T00:06:37;19.08;;;8.90;;
26082;SDS011;13848;49.018;12.078;2024-01-30T00:09:03;15.98;;;8.95;;
26082;SDS011;13848;49.018;12.078;2024-01-30T00:11:29;19.85;;;8.73;;
26082;SDS011;13848;49.018;12.078;2024-01-30T00:13:57;17.80;;;8.93;;
26082;SDS011;13848;49.018;12.078;2024-01-30T00:16:23;17.67;;;9.02;;
26082;SDS011;13848;49.018;12.078;2024-01-30T00:18:49;17.45;;;9.38;;
26082;SDS011;13848;49.018;12.078;2024-01-30T00:21:15;18.02;;;9.15;;
26082;SDS011;13848;49.018;12.078;2024-01-30T00:23:41;18.17;;;9.57;;
26082;SDS011;13848;49.018;12.078;2024-01-30T00:26:07;21.10;;;10.13;;
26082;SDS011;13848;49.018;12.078;2024-01-30T00:28:33;23.23;;;10.48;;
26082;SDS011;13848;49.018;12.078;2024-01-30T00:31:00;22.70;;;11.00;;
26082;SDS011;13848;49.018;12.078;2024-01-30T00:33:26;24.02;;;10.20;;
26082;SDS011;13848;49.018;12.078;2024-01-30T00:35:52;21.65;;;10.98;;
26082;SDS011;13848;49.018;12.078;2024-01-30T00:38:18;19.27;;;10.10;;
26082;SDS011;13848;49.018;12.078;2024-01-30T00:40:44;18.85;;;9.65;;
26082;SDS011;13848;49.018;12.078;2024-01-30T00:43:10;16.00;;;8.90;;
26082;SDS011;13848;49.018;12.078;2024-01-30T00:45:36;15.10;;;8.45;;
26082;SDS011;13848;49.018;12.078;2024-01-30T00:48:04;19.60;;;8.98;;
26082;SDS011;13848;49.018;12.078;2024-01-30T00:50:30;16.70;;;8.02;;
26082;SDS011;13848;49.018;12.078;2024-01-30T00:52:56;18.02;;;8.75;;
26082;SDS011;13848;49.018;12.078;2024-01-30T00:55:22;16.10;;;8.07;;
26082;SDS011;13848;49.018;12.078;2024-01-30T00:57:48;16.13;;;8.00;;
26082;SDS011;13848;49.018;12.078;2024-01-30T01:00:14;13.80;;;7.80;;
26082;SDS011;13848;49.018;12.078;2024-01-30T01:02:40;16.38;;;7.68;;
26082;SDS011;13848;49.018;12.078;2024-01-30T01:05:08;14.32;;;7.38;;
26082;SDS011;13848;49.018;12.078;2024-01-30T01:07:34;15.00;;;7.57;;
26082;SDS011;13848;49.018;12.078;2024-01-30T01:10:00;13.00;;;7.35;;
26082;SDS011;13848;49.018;12.078;2024-01-30T01:12:26;15.32;;;7.55;;
26082;SDS011;13848;49.018;12.078;2024-01-30T01:14:52;16.10;;;7.68;;
26082;SDS011;13848;49.018;12.078;2024-01-30T01:17:17;15.35;;;7.53;;
26082;SDS011;13848;49.018;12.078;2024-01-30T01:19:43;12.88;;;6.90;;
26082;SDS011;13848;49.018;12.078;2024-01-30T01:22:11;14.73;;;7.85;;
26082;SDS011;13848;49.018;12.078;2024-01-30T01:24:37;13.05;;;7.30;;
26082;SDS011;13848;49.018;12.078;2024-01-30T01:27:03;17.33;;;7.68;;
26082;SDS011;13848;49.018;12.078;2024-01-30T01:29:29;12.50;;;7.03;;
26082;SDS011;13848;49.018;12.078;2024-01-30T01:31:55;15.05;;;7.43;;
26082;SDS011;13848;49.018;12.078;2024-01-30T01:34:21;13.20;;;7.15;;
26082;SDS011;13848;49.018;12.078;2024-01-30T01:36:47;12.38;;;7.35;;
26082;SDS011;13848;49.018;12.078;2024-01-30T01:39:14;14.07;;;6.90;;
26082;SDS011;13848;49.018;12.078;2024-01-30T01:41:40;15.15;;;6.93;;
26082;SDS011;13848;49.018;12.078;2024-01-30T01:44:06;14.52;;;7.80;;
26082;SDS011;13848;49.018;12.078;2024-01-30T01:46:33;15.52;;;7.25;;
26082;SDS011;13848;49.018;12.078;2024-01-30T01:49:01;14.82;;;7.40;;
26082;SDS011;13848;49.018;12.078;2024-01-30T01:51:28;14.20;;;8.07;;
26082;SDS011;13848;49.018;12.078;2024-01-30T01:53:56;15.98;;;8.05;;
26082;SDS011;13848;49.018;12.078;2024-01-30T01:56:25;15.65;;;7.68;;
26082;SDS011;13848;49.018;12.078;2024-01-30T01:58:54;16.63;;;7.70;;
26082;SDS011;13848;49.018;12.078;2024-01-30T02:01:20;17.30;;;8.00;;
26082;SDS011;13848;49.018;12.078;2024-01-30T02:03:48;15.20;;;7.75;;
26082;SDS011;13848;49.018;12.078;2024-01-30T02:06:14;13.13;;;7.50;;
26082;SDS011;13848;49.018;12.078;2024-01-30T02:08:41;13.65;;;8.02;;
26082;SDS011;13848;49.018;12.078;2024-01-30T02:11:07;13.75;;;7.00;;
26082;SDS011;13848;49.018;12.078;2024-01-30T02:13:35;13.65;;;6.78;;
26082;SDS011;13848;49.018;12.078;2024-01-30T02:16:01;15.63;;;7.75;;
26082;SDS011;13848;49.018;12.078;2024-01-30T02:18:27;15.55;;;7.90;;
26082;SDS011;13848;49.018;12.078;2024-01-30T02:20:53;16.15;;;7.90;;
26082;SDS011;13848;49.018;12.078;2024-01-30T02:23:22;16.95;;;7.25;;
26082;SDS011;13848;49.018;12.078;2024-01-30T02:25:49;16.42;;;8.30;;
26082;SDS011;13848;49.018;12.078;2024-01-30T02:28:15;16.85;;;7.82;;
26082;SDS011;13848;49.018;12.078;2024-01-30T02:30:42;13.18;;;7.13;;
26082;SDS011;13848;49.018;12.078;2024-01-30T02:33:08;14.82;;;8.18;;
26082;SDS011;13848;49.018;12.078;2024-01-30T02:35:34;15.75;;;8.50;;
26082;SDS011;13848;49.018;12.078;2024-01-30T02:38:00;13.65;;;8.05;;
26082;SDS011;13848;49.018;12.078;2024-01-30T02:40:27;14.45;;;8.07;;
26082;SDS011;13848;49.018;12.078;2024-01-30T02:42:53;15.50;;;7.90;;
26082;SDS011;13848;49.018;12.078;2024-01-30T02:45:19;16.35;;;7.72;;
26082;SDS011;13848;49.018;12.078;2024-01-30T02:47:45;16.33;;;8.40;;
26082;SDS011;13848;49.018;12.078;2024-01-30T02:50:11;14.10;;;8.00;;
26082;SDS011;13848;49.018;12.078;2024-01-30T02:52:37;17.42;;;8.30;;
26082;SDS011;13848;49.018;12.078;2024-01-30T02:55:03;17.92;;;8.05;;
26082;SDS011;13848;49.018;12.078;2024-01-30T02:57:31;12.82;;;7.78;;
26082;SDS011;13848;49.018;12.078;2024-01-30T02:59:57;12.77;;;7.47;;
26082;SDS011;13848;49.018;12.078;2024-01-30T03:02:23;15.05;;;7.57;;
26082;SDS011;13848;49.018;12.078;2024-01-30T03:04:49;16.73;;;7.80;;
26082;SDS011;13848;49.018;12.078;2024-01-30T03:07:15;16.27;;;8.50;;
26082;SDS011;13848;49.018;12.078;2024-01-30T03:09:41;16.67;;;7.78;;
26082;SDS011;13848;49.018;12.078;2024-01-30T03:12:07;15.68;;;8.02;;
26082;SDS011;13848;49.018;12.078;2024-01-30T03:14:34;12.82;;;7.68;;
26082;SDS011;13848;49.018;12.078;2024-01-30T03:17:00;14.75;;;8.20;;
26082;SDS011;13848;49.018;12.078;2024-01-30T03:19:26;15.98;;;8.27;;
26082;SDS011;13848;49.018;12.078;2024-01-30T03:21:52;18.10;;;8.30;;
26082;SDS011;13848;49.018;12.078;2024-01-30T03:24:18;20.25;;;8.93;;
26082;SDS011;13848;49.018;12.078;2024-01-30T03:26:44;16.75;;;7.93;;
26082;SDS011;13848;49.018;12.078;2024-01-30T03:29:10;15.85;;;8.55;;
26082;SDS011;13848;49.018;12.078;2024-01-30T03:31:38;18.65;;;8.07;;
26082;SDS011;13848;49.018;12.078;2024-01-30T03:34:04;15.90;;;8.02;;
26082;SDS011;13848;49.018;12.078;2024-01-30T03:36:30;16.10;;;8.63;;
26082;SDS011;13848;49.018;12.078;2024-01-30T03:38:56;19.67;;;8.82;;
26082;SDS011;13848;49.018;12.078;2024-01-30T03:41:22;17.10;;;8.20;;
26082;SDS011;13848;49.018;12.078;2024-01-30T03:43:48;18.50;;;8.60;;
26082;SDS011;13848;49.018;12.078;2024-01-30T03:46:14;18.30;;;8.27;;
26082;SDS011;13848;49.018;12.078;2024-01-30T03:48:41;17.42;;;7.85;;
26082;SDS011;13848;49.018;12.078;2024-01-30T03:51:07;16.40;;;8.25;;
26082;SDS011;13848;49.018;12.078;2024-01-30T03:53:33;18.15;;;8.13;;
26082;SDS011;13848;49.018;12.078;2024-01-30T03:55:59;16.73;;;8.38;;
26082;SDS011;13848;49.018;12.078;2024-01-30T03:58:25;16.95;;;8.38;;
26082;SDS011;13848;49.018;12.078;2024-01-30T04:00:51;16.25;;;8.48;;
26082;SDS011;13848;49.018;12.078;2024-01-30T04:03:17;15.73;;;8.77;;
26082;SDS011;13848;49.018;12.078;2024-01-30T04:05:44;18.58;;;8.63;;
26082;SDS011;13848;49.018;12.078;2024-01-30T04:08:10;18.67;;;8.57;;
26082;SDS011;13848;49.018;12.078;2024-01-30T04:10:36;15.32;;;8.10;;
26082;SDS011;13848;49.018;12.078;2024-01-30T04:13:02;15.68;;;9.10;;
26082;SDS011;13848;49.018;12.078;2024-01-30T04:15:29;20.13;;;9.30;;
26082;SDS011;13848;49.018;12.078;2024-01-30T04:17:57;18.67;;;9.13;;
26082;SDS011;13848;49.018;12.078;2024-01-30T04:20:23;18.33;;;8.70;;
26082;SDS011;13848;49.018;12.078;2024-01-30T04:22:50;17.80;;;9.45;;
26082;SDS011;13848;49.018;12.078;2024-01-30T04:25:16;17.48;;;8.68;;
26082;SDS011;13848;49.018;12.078;2024-01-30T04:27:42;18.75;;;8.82;;
26082;SDS011;13848;49.018;12.078;2024-01-30T04:30:08;21.13;;;8.82;;
26082;SDS011;13848;49.018;12.078;2024-01-30T04:32:35;17.15;;;9.05;;
26082;SDS011;13848;49.018;12.078;2024-01-30T04:35:01;20.27;;;8.77;;
26082;SDS011;13848;49.018;12.078;2024-01-30T04:37:27;15.55;;;8.60;;
26082;SDS011;13848;49.018;12.078;2024-01-30T04:39:54;17.73;;;9.38;;
26082;SDS011;13848;49.018;12.078;2024-01-30T04:42:20;16.00;;;9.15;;
26082;SDS011;13848;49.018;12.078;2024-01-30T04:44:46;18.15;;;9.10;;
26082;SDS011;13848;49.018;12.078;2024-01-30T04:47:12;17.05;;;9.30;;
26082;SDS011;13848;49.018;12.078;2024-01-30T04:49:38;16.80;;;9.13;;
26082;SDS011;13848;49.018;12.078;2024-01-30T04:52:05;18.58;;;9.50;;
26082;SDS011;13848;49.018;12.078;2024-01-30T04:54:31;18.95;;;9.77;;
26082;SDS011;13848;49.018;12.078;2024-01-30T04:56:58;23.45;;;9.82;;
26082;SDS011;13848;49.018;12.078;2024-01-30T04:59:24;19.33;;;9.27;;
26082;SDS011;13848;49.018;12.078;2024-01-30T05:01:51;18.98;;;9.32;;
26082;SDS011;13848;49.018;12.078;2024-01-30T05:04:17;15.68;;;9.05;;
26082;SDS011;13848;49.018;12.078;2024-01-30T05:06:43;18.40;;;8.93;;
26082;SDS011;13848;49.018;12.078;2024-01-30T05:09:09;17.38;;;9.57;;
26082;SDS011;13848;49.018;12.078;2024-01-30T05:11:36;21.00;;;9.98;;
26082;SDS011;13848;49.018;12.078;2024-01-30T05:14:03;18.42;;;9.43;;
26082;SDS011;13848;49.018;12.078;2024-01-30T05:16:29;18.42;;;9.82;;
26082;SDS011;13848;49.018;12.078;2024-01-30T05:18:55;23.73;;;9.45;;
26082;SDS011;13848;49.018;12.078;2024-01-30T05:21:21;21.20;;;9.43;;
26082;SDS011;13848;49.018;12.078;2024-01-30T05:23:47;22.70;;;10.07;;
26082;SDS011;13848;49.018;12.078;2024-01-30T05:26:13;16.92;;;8.90;;
26082;SDS011;13848;49.018;12.078;2024-01-30T05:28:39;20.10;;;9.35;;
26082;SDS011;13848;49.018;12.078;2024-01-30T05:31:06;15.32;;;8.80;;
26082;SDS011;13848;49.018;12.078;2024-01-30T05:33:32;17.35;;;9.52;;
26082;SDS011;13848;49.018;12.078;2024-01-30T05:35:58;18.67;;;8.90;;
26082;SDS011;13848;49.018;12.078;2024-01-30T05:38:24;14.60;;;8.80;;
26082;SDS011;13848;49.018;12.078;2024-01-30T05:40:50;19.13;;;8.93;;
26082;SDS011;13848;49.018;12.078;2024-01-30T05:43:16;15.15;;;8.68;;
26082;SDS011;13848;49.018;12.078;2024-01-30T05:45:42;18.58;;;9.52;;
26082;SDS011;13848;49.018;12.078;2024-01-30T05:48:09;15.85;;;8.55;;
26082;SDS011;13848;49.018;12.078;2024-01-30T05:50:35;21.73;;;9.18;;
26082;SDS011;13848;49.018;12.078;2024-01-30T05:53:01;18.08;;;8.73;;
26082;SDS011;13848;49.018;12.078;2024-01-30T05:55:27;18.70;;;9.00;;
26082;SDS011;13848;49.018;12.078;2024-01-30T05:57:53;16.17;;;9.90;;
26082;SDS011;13848;49.018;12.078;2024-01-30T06:00:19;20.13;;;9.07;;
26082;SDS011;13848;49.018;12.078;2024-01-30T06:02:45;18.00;;;10.43;;
26082;SDS011;13848;49.018;12.078;2024-01-30T06:05:12;25.05;;;11.68;;
26082;SDS011;13848;49.018;12.078;2024-01-30T06:07:38;30.13;;;12.52;;
26082;SDS011;13848;49.018;12.078;2024-01-30T06:10:05;29.77;;;13.43;;
26082;SDS011;13848;49.018;12.078;2024-01-30T06:12:31;28.80;;;12.63;;
26082;SDS011;13848;49.018;12.078;2024-01-30T06:14:57;24.45;;;12.85;;
26082;SDS011;13848;49.018;12.078;2024-01-30T06:17:23;30.92;;;13.80;;
26082;SDS011;13848;49.018;12.078;2024-01-30T06:19:49;28.40;;;14.30;;
26082;SDS011;13848;49.018;12.078;2024-01-30T06:22:17;28.20;;;13.68;;
26082;SDS011;13848;49.018;12.078;2024-01-30T06:24:43;28.45;;;14.55;;
26082;SDS011;13848;49.018;12.078;2024-01-30T06:27:09;28.83;;;13.60;;
26082;SDS011;13848;49.018;12.078;2024-01-30T06:29:35;28.33;;;13.02;;
26082;SDS011;13848;49.018;12.078;2024-01-30T06:32:01;30.95;;;13.63;;
26082;SDS011;13848;49.018;12.078;2024-01-30T06:34:27;28.35;;;14.02;;
26082;SDS011;13848;49.018;12.078;2024-01-30T06:36:53;26.88;;;13.90;;
26082;SDS011;13848;49.018;12.078;2024-01-30T06:39:20;27.70;;;12.70;;
26082;SDS011;13848;49.018;12.078;2024-01-30T06:41:46;26.00;;;13.52;;
26082;SDS011;13848;49.018;12.078;2024-01-30T06:44:12;25.95;;;13.30;;
26082;SDS011;13848;49.018;12.078;2024-01-30T06:46:38;25.23;;;13.27;;
26082;SDS011;13848;49.018;12.078;2024-01-30T06:49:04;30.75;;;13.45;;
26082;SDS011;13848;49.018;12.078;2024-01-30T06:51:30;30.10;;;13.85;;
26082;SDS011;13848;49.018;12.078;2024-01-30T06:53:56;28.02;;;14.00;;
26082;SDS011;13848;49.018;12.078;2024-01-30T06:56:24;23.92;;;12.23;;
26082;SDS011;13848;49.018;12.078;2024-01-30T06:58:50;28.15;;;13.20;;
26082;SDS011;13848;49.018;12.078;2024-01-30T07:01:16;28.10;;;13.77;;
26082;SDS011;13848;49.018;12.078;2024-01-30T07:03:42;33.30;;;13.40;;
26082;SDS011;13848;49.018;12.078;2024-01-30T07:06:08;30.67;;;13.65;;
26082;SDS011;13848;49.018;12.078;2024-01-30T07:08:35;26.00;;;14.20;;
26082;SDS011;13848;49.018;12.078;2024-01-30T07:11:01;29.38;;;13.15;;
26082;SDS011;13848;49.018;12.078;2024-01-30T07:13:28;28.98;;;13.70;;
26082;SDS011;13848;49.018;12.078;2024-01-30T07:15:54;30.17;;;14.18;;
26082;SDS011;13848;49.018;12.078;2024-01-30T07:18:20;25.88;;;13.73;;
26082;SDS011;13848;49.018;12.078;2024-01-30T07:20:46;27.27;;;13.75;;
26082;SDS011;13848;49.018;12.078;2024-01-30T07:23:12;23.83;;;13.55;;
26082;SDS011;13848;49.018;12.078;2024-01-30T07:25:38;26.02;;;13.20;;
26082;SDS011;13848;49.018;12.078;2024-01-30T07:28:05;25.55;;;13.88;;
26082;SDS011;13848;49.018;12.078;2024-01-30T07:30:32;30.17;;;13.90;;
26082;SDS011;13848;49.018;12.078;2024-01-30T07:32:58;25.30;;;12.75;;
26082;SDS011;13848;49.018;12.078;2024-01-30T07:35:24;26.75;;;13.43;;
26082;SDS011;13848;49.018;12.078;2024-01-30T07:37:50;25.50;;;13.80;;
26082;SDS011;13848;49.018;12.078;2024-01-30T07:40:16;26.13;;;12.50;;
26082;SDS011;13848;49.018;12.078;2024-01-30T07:42:42;25.13;;;13.18;;
26082;SDS011;13848;49.018;12.078;2024-01-30T07:45:09;22.92;;;13.27;;
26082;SDS011;13848;49.018;12.078;2024-01-30T07:47:36;26.23;;;14.18;;
26082;SDS011;13848;49.018;12.078;2024-01-30T07:50:02;24.35;;;13.43;;
26082;SDS011;13848;49.018;12.078;2024-01-30T07:52:29;23.73;;;12.70;;
26082;SDS011;13848;49.018;12.078;2024-01-30T07:54:54;22.13;;;12.25;;
26082;SDS011;13848;49.018;12.078;2024-01-30T07:57:20;26.23;;;12.93;;
26082;SDS011;13848;49.018;12.078;2024-01-30T07:59:47;23.55;;;12.68;;
26082;SDS011;13848;49.018;12.078;2024-01-30T08:02:13;21.77;;;13.23;;
26082;SDS011;13848;49.018;12.078;2024-01-30T08:04:40;23.00;;;12.85;;
26082;SDS011;13848;49.018;12.078;2024-01-30T08:07:07;25.55;;;12.18;;
26082;SDS011;13848;49.018;12.078;2024-01-30T08:09:33;20.85;;;12.30;;
26082;SDS011;13848;49.018;12.078;2024-01-30T08:11:58;24.00;;;12.50;;
26082;SDS011;13848;49.018;12.078;2024-01-30T08:14:24;21.08;;;12.32;;
26082;SDS011;13848;49.018;12.078;2024-01-30T08:16:50;19.25;;;11.70;;
26082;SDS011;13848;49.018;12.078;2024-01-30T08:19:16;28.13;;;12.43;;
26082;SDS011;13848;49.018;12.078;2024-01-30T08:21:44;23.55;;;12.38;;
26082;SDS011;13848;49.018;12.078;2024-01-30T08:24:10;23.75;;;13.05;;
26082;SDS011;13848;49.018;12.078;2024-01-30T08:26:36;21.77;;;12.35;;
26082;SDS011;13848;49.018;12.078;2024-01-30T08:29:02;24.33;;;12.68;;
26082;SDS011;13848;49.018;12.078;2024-01-30T08:31:28;20.52;;;12.20;;
26082;SDS011;13848;49.018;12.078;2024-01-30T08:33:54;24.45;;;13.52;;
26082;SDS011;13848;49.018;12.078;2024-01-30T08:36:20;21.58;;;13.32;;
26082;SDS011;13848;49.018;12.078;2024-01-30T08:38:47;23.50;;;13.70;;
26082;SDS011;13848;49.018;12.078;2024-01-30T08:41:13;26.10;;;13.43;;
26082;SDS011;13848;49.018;12.078;2024-01-30T08:43:39;30.95;;;14.77;;
26082;SDS011;13848;49.018;12.078;2024-01-30T08:46:05;23.63;;;13.35;;
26082;SDS011;13848;49.018;12.078;2024-01-30T08:48:31;26.45;;;13.05;;
26082;SDS011;13848;49.018;12.078;2024-01-30T08:50:57;25.05;;;14.05;;
26082;SDS011;13848;49.018;12.078;2024-01-30T08:53:23;26.83;;;14.40;;
26082;SDS011;13848;49.018;12.078;2024-01-30T08:55:50;27.75;;;14.57;;
26082;SDS011;13848;49.018;12.078;2024-01-30T08:58:16;23.10;;;14.10;;
26082;SDS011;13848;49.018;12.078;2024-01-30T09:00:42;27.50;;;14.02;;
26082;SDS011;13848;49.018;12.078;2024-01-30T09:03:08;21.48;;;12.98;;
26082;SDS011;13848;49.018;12.078;2024-01-30T09:05:34;22.45;;;13.40;;
26082;SDS011;13848;49.018;12.078;2024-01-30T09:08:00;24.63;;;13.57;;
26082;SDS011;13848;49.018;12.078;2024-01-30T09:10:26;24.92;;;13.18;;
26082;SDS011;13848;49.018;12.078;2024-01-30T09:12:53;23.38;;;14.02;;
26082;SDS011;13848;49.018;12.078;2024-01-30T09:15:19;23.55;;;13.57;;
26082;SDS011;13848;49.018;12.078;2024-01-30T09:17:45;24.13;;;14.38;;
26082;SDS011;13848;49.018;12.078;2024-01-30T09:20:11;25.02;;;14.73;;
26082;SDS011;13848;49.018;12.078;2024-01-30T09:22:37;23.30;;;14.65;;
26082;SDS011;13848;49.018;12.078;2024-01-30T09:25:03;23.73;;;14.40;;
26082;SDS011;13848;49.018;12.078;2024-01-30T09:27:30;25.30;;;14.55;;
26082;SDS011;13848;49.018;12.078;2024-01-30T09:29:57;24.77;;;15.68;;
26082;SDS011;13848;49.018;12.078;2024-01-30T09:32:23;27.58;;;15.35;;
26082;SDS011;13848;49.018;12.078;2024-01-30T09:34:49;24.35;;;14.65;;
26082;SDS011;13848;49.018;12.078;2024-01-30T09:37:15;26.33;;;14.63;;
26082;SDS011;13848;49.018;12.078;2024-01-30T09:39:41;24.38;;;14.52;;
26082;SDS011;13848;49.018;12.078;2024-01-30T09:42:09;27.27;;;16.02;;
26082;SDS011;13848;49.018;12.078;2024-01-30T09:44:43;24.13;;;15.38;;
26082;SDS011;13848;49.018;12.078;2024-01-30T09:47:11;36.38;;;15.85;;
26082;SDS011;13848;49.018;12.078;2024-01-30T09:49:37;23.75;;;14.38;;
26082;SDS011;13848;49.018;12.078;2024-01-30T09:52:04;23.35;;;15.00;;
26082;SDS011;13848;49.018;12.078;2024-01-30T09:54:31;24.48;;;15.00;;
26082;SDS011;13848;49.018;12.078;2024-01-30T09:56:57;20.65;;;15.02;;
26082;SDS011;13848;49.018;12.078;2024-01-30T09:59:23;25.20;;;15.40;;
26082;SDS011;13848;49.018;12.078;2024-01-30T10:01:49;24.48;;;15.02;;
26082;SDS011;13848;49.018;12.078;2024-01-30T10:04:17;24.42;;;15.18;;
26082;SDS011;13848;49.018;12.078;2024-01-30T10:06:43;24.98;;;16.23;;
26082;SDS011;13848;49.018;12.078;2024-01-30T10:09:09;24.90;;;14.90;;
26082;SDS011;13848;49.018;12.078;2024-01-30T10:11:35;23.42;;;14.98;;
26082;SDS011;13848;49.018;12.078;2024-01-30T10:14:01;25.10;;;15.73;;
26082;SDS011;13848;49.018;12.078;2024-01-30T10:16:27;24.13;;;15.88;;
26082;SDS011;13848;49.018;12.078;2024-01-30T10:18:54;23.45;;;15.00;;
26082;SDS011;13848;49.018;12.078;2024-01-30T10:21:21;21.75;;;15.18;;
26082;SDS011;13848;49.018;12.078;2024-01-30T10:23:47;25.60;;;15.90;;
26082;SDS011;13848;49.018;12.078;2024-01-30T10:26:13;26.35;;;15.88;;
26082;SDS011;13848;49.018;12.078;2024-01-30T10:28:41;24.05;;;16.83;;
26082;SDS011;13848;49.018;12.078;2024-01-30T10:31:07;23.35;;;16.15;;
26082;SDS011;13848;49.018;12.078;2024-01-30T10:33:33;28.77;;;17.08;;
26082;SDS011;13848;49.018;12.078;2024-01-30T10:36:00;25.35;;;15.82;;
26082;SDS011;13848;49.018;12.078;2024-01-30T10:38:29;25.75;;;16.65;;
26082;SDS011;13848;49.018;12.078;2024-01-30T10:40:56;25.70;;;16.35;;
26082;SDS011;13848;49.018;12.078;2024-01-30T10:43:23;22.55;;;16.15;;
26082;SDS011;13848;49.018;12.078;2024-01-30T10:45:54;25.00;;;17.00;;
26082;SDS011;13848;49.018;12.078;2024-01-30T10:48:23;24.95;;;16.90;;
26082;SDS011;13848;49.018;12.078;2024-01-30T10:53:21;26.55;;;16.65;;
26082;SDS011;13848;49.018;12.078;2024-01-30T10:55:49;24.45;;;16.50;;
26082;SDS011;13848;49.018;12.078;2024-01-30T10:58:16;27.45;;;16.15;;
26082;SDS011;13848;49.018;12.078;2024-01-30T11:00:43;24.27;;;16.27;;
26082;SDS011;13848;49.018;12.078;2024-01-30T11:03:10;24.58;;;16.10;;
26082;SDS011;13848;49.018;12.078;2024-01-30T11:05:40;26.92;;;16.58;;
26082;SDS011;13848;49.018;12.078;2024-01-30T11:08:12;27.52;;;16.92;;
26082;SDS011;13848;49.018;12.078;2024-01-30T11:10:44;26.33;;;18.50;;
26082;SDS011;13848;49.018;12.078;2024-01-30T11:13:14;28.90;;;20.48;;
26082;SDS011;13848;49.018;12.078;2024-01-30T11:15:41;23.02;;;16.88;;
26082;SDS011;13848;49.018;12.078;2024-01-30T11:18:07;23.50;;;16.45;;
26082;SDS011;13848;49.018;12.078;2024-01-30T11:20:33;25.25;;;17.10;;
26082;SDS011;13848;49.018;12.078;2024-01-30T11:22:59;23.88;;;16.98;;
26082;SDS011;13848;49.018;12.078;2024-01-30T11:25:25;27.48;;;16.58;;
26082;SDS011;13848;49.018;12.078;2024-01-30T11:27:52;25.13;;;17.02;;
26082;SDS011;13848;49.018;12.078;2024-01-30T11:30:23;28.23;;;17.38;;
26082;SDS011;13848;49.018;12.078;2024-01-30T11:33:00;26.50;;;16.57;;
26082;SDS011;13848;49.018;12.078;2024-01-30T11:35:26;22.75;;;16.00;;
26082;SDS011;13848;49.018;12.078;2024-01-30T11:37:52;24.83;;;16.55;;
26082;SDS011;13848;49.018;12.078;2024-01-30T11:40:20;23.83;;;16.35;;
26082;SDS011;13848;49.018;12.078;2024-01-30T11:42:47;22.08;;;15.20;;
26082;SDS011;13848;49.018;12.078;2024-01-30T11:45:14;23.23;;;16.02;;
26082;SDS011;13848;49.018;12.078;2024-01-30T11:47:41;26.50;;;16.85;;
26082;SDS011;13848;49.018;12.078;2024-01-30T11:50:07;23.70;;;16.55;;
26082;SDS011;13848;49.018;12.078;2024-01-30T11:52:34;23.88;;;16.75;;
26082;SDS011;13848;49.018;12.078;2024-01-30T11:55:00;23.75;;;16.05;;
26082;SDS011;13848;49.018;12.078;2024-01-30T11:57:27;24.52;;;17.40;;
26082;SDS011;13848;49.018;12.078;2024-01-30T11:59:53;23.70;;;16.27;;
26082;SDS011;13848;49.018;12.078;2024-01-30T12:02:19;20.83;;;14.90;;
26082;SDS011;13848;49.018;12.078;2024-01-30T12:04:46;25.10;;;16.80;;
26082;SDS011;13848;49.018;12.078;2024-01-30T12:07:12;24.85;;;15.38;;
26082;SDS011;13848;49.018;12.078;2024-01-30T12:09:38;22.38;;;14.80;;
26082;SDS011;13848;49.018;12.078;2024-01-30T12:12:05;24.08;;;14.85;;
26082;SDS011;13848;49.018;12.078;2024-01-30T12:14:32;25.38;;;14.32;;
26082;SDS011;13848;49.018;12.078;2024-01-30T12:16:58;22.95;;;15.30;;
26082;SDS011;13848;49.018;12.078;2024-01-30T12:19:24;23.88;;;15.70;;
26082;SDS011;13848;49.018;12.078;2024-01-30T12:21:55;27.98;;;15.55;;
26082;SDS011;13848;49.018;12.078;2024-01-30T12:24:21;22.25;;;15.15;;
26082;SDS011;13848;49.018;12.078;2024-01-30T12:26:48;23.02;;;15.02;;
26082;SDS011;13848;49.018;12.078;2024-01-30T12:29:14;26.65;;;14.90;;
26082;SDS011;13848;49.018;12.078;2024-01-30T12:31:41;24.75;;;15.10;;
26082;SDS011;13848;49.018;12.078;2024-01-30T12:34:07;24.15;;;14.25;;
26082;SDS011;13848;49.018;12.078;2024-01-30T12:36:33;27.42;;;14.65;;
26082;SDS011;13848;49.018;12.078;2024-01-30T12:39:01;25.60;;;14.23;;
26082;SDS011;13848;49.018;12.078;2024-01-30T12:41:27;21.20;;;14.77;;
26082;SDS011;13848;49.018;12.078;2024-01-30T12:43:53;20.70;;;12.90;;
26082;SDS011;13848;49.018;12.078;2024-01-30T12:46:19;21.73;;;13.35;;
26082;SDS011;13848;49.018;12.078;2024-01-30T12:48:45;20.58;;;13.25;;
26082;SDS011;13848;49.018;12.078;2024-01-30T12:51:11;19.55;;;12.98;;
26082;SDS011;13848;49.018;12.078;2024-01-30T12:53:37;19.23;;;12.77;;
26082;SDS011;13848;49.018;12.078;2024-01-30T12:56:04;22.13;;;13.90;;
26082;SDS011;13848;49.018;12.078;2024-01-30T12:58:30;21.23;;;13.52;;
26082;SDS011;13848;49.018;12.078;2024-01-30T13:00:56;19.30;;;13.50;;
26082;SDS011;13848;49.018;12.078;2024-01-30T13:03:22;23.25;;;13.90;;
26082;SDS011;13848;49.018;12.078;2024-01-30T13:05:48;22.85;;;14.32;;
26082;SDS011;13848;49.018;12.078;2024-01-30T13:08:14;21.20;;;13.68;;
26082;SDS011;13848;49.018;12.078;2024-01-30T13:10:40;22.00;;;13.88;;
26082;SDS011;13848;49.018;12.078;2024-01-30T13:13:08;22.83;;;14.75;;
26082;SDS011;13848;49.018;12.078;2024-01-30T13:15:33;22.90;;;13.95;;
26082;SDS011;13848;49.018;12.078;2024-01-30T13:17:59;23.00;;;13.25;;
26082;SDS011;13848;49.018;12.078;2024-01-30T13:20:25;20.17;;;13.05;;
26082;SDS011;13848;49.018;12.078;2024-01-30T13:22:51;19.30;;;13.38;;
26082;SDS011;13848;49.018;12.078;2024-01-30T13:25:17;20.55;;;13.80;;
26082;SDS011;13848;49.018;12.078;2024-01-30T13:27:43;25.52;;;14.35;;
26082;SDS011;13848;49.018;12.078;2024-01-30T13:30:11;27.17;;;14.65;;
26082;SDS011;13848;49.018;12.078;2024-01-30T13:32:37;21.33;;;13.70;;
26082;SDS011;13848;49.018;12.078;2024-01-30T13:35:03;22.60;;;13.23;;
26082;SDS011;13848;49.018;12.078;2024-01-30T13:37:30;22.38;;;13.50;;
26082;SDS011;13848;49.018;12.078;2024-01-30T13:39:56;23.48;;;13.63;;
26082;SDS011;13848;49.018;12.078;2024-01-30T13:42:21;31.33;;;15.73;;
26082;SDS011;13848;49.018;12.078;2024-01-30T13:44:47;20.98;;;13.38;;
26082;SDS011;13848;49.018;12.078;2024-01-30T13:47:15;25.73;;;14.57;;
26082;SDS011;13848;49.018;12.078;2024-01-30T13:49:41;24.00;;;13.70;;
26082;SDS011;13848;49.018;12.078;2024-01-30T13:52:07;21.40;;;14.20;;
26082;SDS011;13848;49.018;12.078;2024-01-30T13:54:33;24.13;;;14.65;;
26082;SDS011;13848;49.018;12.078;2024-01-30T13:56:59;26.15;;;14.88;;
26082;SDS011;13848;49.018;12.078;2024-01-30T13:59:25;23.83;;;14.25;;
26082;SDS011;13848;49.018;12.078;2024-01-30T14:01:51;23.50;;;14.75;;
26082;SDS011;13848;49.018;12.078;2024-01-30T14:04:18;24.40;;;14.52;;
26082;SDS011;13848;49.018;12.078;2024-01-30T14:06:44;26.17;;;15.30;;
26082;SDS011;13848;49.018;12.078;2024-01-30T14:09:10;23.45;;;14.07;;
26082;SDS011;13848;49.018;12.078;2024-01-30T14:11:36;24.70;;;14.43;;